Celtic Explorer — EIGB — position and weather

sailwx.info

Track history (hours):
 
Tides and Currents Weather Stations Pressure Air Temp Water Temp Dewpoint Dewpoint Depression Visibility Wind Speed Wind Dir Waves Ship Positions

Oceanographic research ship Celtic Explorer (Ireland)

Detailed information on ship capabilities available from University of Delaware's Ocean Information Center.

Last reported at 2017-Jun-24 17:40 UTC. Time now 2017-Jun-26 17:06 UTC.
Position N 52°12' W 010°40'.

Type: . MMSI: 250487000.

Date/timePositionNaut miles runAvg speedWind from/ knotsBaromVisibWave heightAir tempDewpointWater temp
2017-Jun-24 17:40N 52°12' W 010°40'46 1.8
2017-Jun-23 16:13N 51°27' W 010°51'2 3.0
2017-Jun-23 15:34N 51°27' W 010°48'1 7.7
2017-Jun-23 15:29N 51°27' W 010°47'5 8.5
2017-Jun-23 14:52N 51°27' W 010°38'1 1.4
2017-Jun-23 13:59N 51°27' W 010°36'2 4.0
2017-Jun-23 13:28N 51°27' W 010°40'1 1.3
2017-Jun-23 13:00N 51°27' W 010°39'4 8.4
2017-Jun-23 12:29N 51°27' W 010°32'1 2.7
2017-Jun-23 11:58N 51°27' W 010°29'2 3.3
2017-Jun-23 11:16N 51°26' W 010°26'2 8.4
2017-Jun-23 11:00N 51°27' W 010°22'4 8.5
2017-Jun-23 10:30N 51°27' W 010°15'3 5.8
2017-Jun-23 09:59N 51°26' W 010°10'2 3.4
2017-Jun-23 09:30N 51°25' W 010°09'4 8.5
2017-Jun-23 08:59N 51°22' W 010°04'4 8.5
2017-Jun-23 08:29N 51°19' W 009°59'4 8.3
2017-Jun-23 07:58N 51°16' W 009°54'4 8.1
2017-Jun-23 07:30N 51°14' W 009°50'2 4.8
2017-Jun-23 07:00N 51°11' W 009°48'510.5
2017-Jun-23 06:30N 51°11' W 009°57'510.8
2017-Jun-23 06:00N 51°11' W 010°05'5 9.0
2017-Jun-23 05:26N 51°11' W 010°14'26 5.2
2017-Jun-23 00:23N 51°11' W 010°55'0 0.1
2017-Jun-22 22:55N 51°11' W 010°56'6 9.9
2017-Jun-22 22:18N 51°11' W 011°05'13 5.6
2017-Jun-22 19:57N 50°58' W 011°04'1 1.3
2017-Jun-22 19:30N 50°58' W 011°03'2 3.4
2017-Jun-22 18:57N 50°58' W 011°06'2 4.2
2017-Jun-22 18:31N 50°58' W 011°09'4 7.5
2017-Jun-22 17:58N 50°58' W 011°03'6 9.5
2017-Jun-22 17:19N 50°58' W 010°53'3 9.5
2017-Jun-22 16:58N 50°58' W 010°48'4 9.4
2017-Jun-22 16:30N 50°58' W 010°41'4 9.1
2017-Jun-22 16:00N 50°58' W 010°34'1 1.0
2017-Jun-22 15:28N 50°58' W 010°33'4 9.3
2017-Jun-22 15:00N 50°58' W 010°26'5 9.2
2017-Jun-22 14:30N 50°58' W 010°19'9 9.3
2017-Jun-22 13:29N 50°58' W 010°04'11 9.5
2017-Jun-22 12:21N 50°58' W 009°47'6 9.4
2017-Jun-22 11:40N 50°58' W 009°36'1 3.5
2017-Jun-22 11:30N 50°58' W 009°37'2 3.5
2017-Jun-22 10:59N 50°58' W 009°40'24 8.4
2017-Jun-22 08:07N 50°58' W 009°02'0 0.0
2017-Jun-22 08:00N 50°58' W 009°02'46 5.9
2017-Jun-22 00:04N 50°58' W 007°48'0 0.0
2017-Jun-21 23:59N 50°58' W 007°48'0 0.0
2017-Jun-21 23:28N 50°58' W 007°48'9 6.4
2017-Jun-21 22:04N 50°58' W 007°34'15 5.2
2017-Jun-21 19:15N 51°12' W 007°40'410.6
2017-Jun-21 18:52N 51°16' W 007°44'410.6
2017-Jun-21 18:28N 51°19' W 007°48'510.7
2017-Jun-21 18:00N 51°23' W 007°52'510.7
2017-Jun-21 17:30N 51°28' W 007°56'510.6
2017-Jun-21 17:00N 51°32' W 008°01'510.5
2017-Jun-21 16:30N 51°37' W 008°06'510.6
2017-Jun-21 16:00N 51°41' W 008°11'4 8.4
2017-Jun-21 15:30N 51°45' W 008°14'4 8.9
2017-Jun-21 15:00N 51°49' W 008°16'2 4.6
2017-Jun-21 14:30N 51°50' W 008°19'1 0.7
2017-Jun-21 13:29N 51°51' W 008°20'0 0.0
2017-Jun-21 13:00N 51°51' W 008°20'0 0.0
2017-Jun-21 12:30N 51°51' W 008°20'0 0.0
2017-Jun-21 12:01N 51°51' W 008°20'2 4.5
2017-Jun-21 11:30N 51°51' W 008°16'612.4
2017-Jun-21 11:00N 51°45' W 008°15'713.7
2017-Jun-21 10:30N 51°39' W 008°09'510.6
2017-Jun-21 10:00N 51°36' W 008°02'713.0
2017-Jun-21 09:30N 51°31' W 007°55'612.9
2017-Jun-21 09:00N 51°26' W 007°48'612.7
2017-Jun-21 08:30N 51°22' W 007°41'612.1
2017-Jun-21 08:00N 51°17' W 007°35'611.7
2017-Jun-21 07:30N 51°13' W 007°28'611.2
2017-Jun-21 07:00N 51°11' W 007°19'612.2
2017-Jun-21 06:30N 51°11' W 007°10'712.2
2017-Jun-21 05:54N 51°11' W 006°58'7 5.2
2017-Jun-21 04:37N 51°11' W 006°47'0 0.8
2017-Jun-21 04:30N 51°11' W 006°47'610.9
2017-Jun-21 03:57N 51°11' W 006°38'611.5
2017-Jun-21 03:28N 51°11' W 006°29'6 9.8
2017-Jun-21 02:52N 51°12' W 006°19'30 7.8
2017-Jun-20 22:59N 51°37' W 006°46'713.2
2017-Jun-20 22:27N 51°34' W 006°36'3 7.4
2017-Jun-20 22:00N 51°33' W 006°31'610.3
2017-Jun-20 21:27N 51°27' W 006°34'511.1
2017-Jun-20 21:00N 51°23' W 006°38'3 4.5
2017-Jun-20 20:25N 51°21' W 006°37'613.3
2017-Jun-20 19:59N 51°21' W 006°28'5 9.0
2017-Jun-20 19:24N 51°16' W 006°25'1511.4
2017-Jun-20 18:05N 51°01' W 006°21'312.1
2017-Jun-20 17:52N 51°01' W 006°25'712.3
2017-Jun-20 17:18N 51°01' W 006°36'512.2
2017-Jun-20 16:55N 51°01' W 006°44'511.3
2017-Jun-20 16:30N 51°01' W 006°51'611.2
2017-Jun-20 15:59N 51°01' W 007°00'711.2
2017-Jun-20 15:21N 51°01' W 007°12'3 7.8
2017-Jun-20 15:00N 50°60' W 007°15'811.7
2017-Jun-20 14:18N 50°52' W 007°15'1811.1
2017-Jun-20 12:41N 50°51' W 006°47'0 0.0
2017-Jun-20 12:24N 50°51' W 006°47'7 9.6
2017-Jun-20 11:43N 50°51' W 006°36'211.4
2017-Jun-20 11:30N 50°51' W 006°33'6 4.3
2017-Jun-20 10:12N 50°51' W 006°24'2 3.8
2017-Jun-20 09:45N 50°51' W 006°26'4 7.8
2017-Jun-20 09:14N 50°51' W 006°20'1011.1
2017-Jun-20 08:22N 50°42' W 006°21'3510.1
2017-Jun-20 04:51N 50°42' W 007°17'410.0
2017-Jun-20 04:28N 50°42' W 007°23'510.1
2017-Jun-20 03:58N 50°42' W 007°31'510.1
2017-Jun-20 03:29N 50°42' W 007°38'510.3
2017-Jun-20 03:00N 50°42' W 007°46'0 0.4
2017-Jun-20 02:30N 50°42' W 007°46'0 0.0
2017-Jun-20 02:00N 50°42' W 007°46'0 0.0
2017-Jun-20 01:30N 50°42' W 007°46'0 0.0
2017-Jun-20 01:00N 50°42' W 007°46'0 0.0
2017-Jun-20 00:30N 50°42' W 007°46'0 0.0
2017-Jun-20 00:00N 50°42' W 007°46'0 0.0
2017-Jun-19 23:30N 50°42' W 007°46'0 0.9
2017-Jun-19 23:00N 50°42' W 007°47'812.4
2017-Jun-19 22:23N 50°42' W 007°59'712.4
2017-Jun-19 21:50N 50°42' W 008°10'5010.7
2017-Jun-19 17:10N 50°42' W 009°29'311.3
2017-Jun-19 16:53N 50°42' W 009°34'410.7
2017-Jun-19 16:30N 50°42' W 009°41'610.8
2017-Jun-19 16:00N 50°42' W 009°49'2 2.2
2017-Jun-19 15:18N 50°42' W 009°52'310.8
2017-Jun-19 15:00N 50°42' W 009°57'510.4
2017-Jun-19 14:29N 50°42' W 010°05'2610.9
2017-Jun-19 12:07N 50°41' W 010°46'0 2.4
2017-Jun-19 11:58N 50°42' W 010°46'2 3.1
2017-Jun-19 11:17N 50°42' W 010°43'1 2.5
2017-Jun-19 10:48N 50°42' W 010°41'7 8.1
2017-Jun-19 09:58N 50°38' W 010°50'61 5.4
2017-Jun-18 22:38N 50°27' W 009°16'10 6.4
2017-Jun-18 21:04N 50°27' W 009°00'1 9.8
2017-Jun-18 21:00N 50°27' W 008°59'810.1
2017-Jun-18 20:11N 50°27' W 008°46'1010.3
2017-Jun-18 19:15N 50°27' W 008°31'310.4
2017-Jun-18 19:00N 50°27' W 008°27'510.5
2017-Jun-18 18:30N 50°27' W 008°19'5 9.9
2017-Jun-18 18:01N 50°27' W 008°11'1 1.2
2017-Jun-18 17:30N 50°27' W 008°12'0 1.0
2017-Jun-18 17:01N 50°27' W 008°13'5 9.9
2017-Jun-18 16:30N 50°27' W 008°05'510.4
2017-Jun-18 16:00N 50°27' W 007°57'2 3.9
2017-Jun-18 15:30N 50°29' W 007°56'510.1
2017-Jun-18 15:00N 50°32' W 008°02'6 5.9
2017-Jun-18 14:00N 50°33' W 007°53'2 4.9
2017-Jun-18 13:30N 50°33' W 007°49'510.1
2017-Jun-18 13:00N 50°33' W 007°41'510.1
2017-Jun-18 12:30N 50°33' W 007°33'510.0
2017-Jun-18 12:01N 50°33' W 007°25'510.0
2017-Jun-18 11:30N 50°33' W 007°17'4 7.2
2017-Jun-18 11:00N 50°30' W 007°14'510.5
2017-Jun-18 10:30N 50°25' W 007°14'510.6
2017-Jun-18 10:00N 50°20' W 007°14'5 9.4
2017-Jun-18 09:30N 50°19' W 007°21'510.6
2017-Jun-18 09:00N 50°19' W 007°30'510.4
2017-Jun-18 08:30N 50°19' W 007°38'510.4
2017-Jun-18 08:00N 50°19' W 007°46'5 9.4
2017-Jun-18 07:30N 50°20' W 007°53'510.4
2017-Jun-18 07:00N 50°25' W 007°53'4 7.9
2017-Jun-18 06:30N 50°27' W 007°47'510.3
2017-Jun-18 06:00N 50°27' W 007°39'3 5.4
2017-Jun-18 05:30N 50°27' W 007°35'2 3.7
2017-Jun-18 05:00N 50°27' W 007°32'1 2.9
2017-Jun-18 04:30N 50°27' W 007°34'3 5.5
2017-Jun-18 04:00N 50°27' W 007°39'510.5
2017-Jun-18 03:30N 50°27' W 007°31'510.1
2017-Jun-18 03:00N 50°27' W 007°23'0 0.0
2017-Jun-18 02:30N 50°27' W 007°23'0 0.1
2017-Jun-18 02:01N 50°27' W 007°23'2 4.9
2017-Jun-18 01:30N 50°25' W 007°25'3 6.0
2017-Jun-18 01:00N 50°22' W 007°28'510.0
2017-Jun-18 00:30N 50°19' W 007°33'510.3
2017-Jun-18 00:00N 50°15' W 007°38'5 9.5
2017-Jun-17 23:30N 50°12' W 007°44'510.7
2017-Jun-17 23:00N 50°12' W 007°52'710.8
2017-Jun-17 22:23N 50°12' W 008°02'410.7
2017-Jun-17 22:00N 50°12' W 008°09'3 6.6
2017-Jun-17 21:30N 50°12' W 008°14'2 3.2
2017-Jun-17 21:00N 50°12' W 008°16'510.6
2017-Jun-17 20:30N 50°11' W 008°25'1810.5
2017-Jun-17 18:50N 50°12' W 008°52'710.3
2017-Jun-17 18:08N 50°12' W 009°03'110.1
2017-Jun-17 18:00N 50°12' W 009°06'510.1
2017-Jun-17 17:29N 50°12' W 009°14'610.0
2017-Jun-17 16:53N 50°12' W 009°23'4 9.8
2017-Jun-17 16:30N 50°12' W 009°29'610.1
2017-Jun-17 15:56N 50°12' W 009°38'510.1
2017-Jun-17 15:26N 50°12' W 009°46'4 8.6
2017-Jun-17 14:59N 50°12' W 009°52'0 0.9
2017-Jun-17 14:28N 50°12' W 009°52'8 8.2
2017-Jun-17 13:30N 50°12' W 010°05'610.4
2017-Jun-17 12:55N 50°12' W 010°14'510.2
2017-Jun-17 12:25N 50°12' W 010°22'710.2
2017-Jun-17 11:45N 50°12' W 010°33'14 4.9
2017-Jun-17 08:52N 50°11' W 010°55'104 5.4
2017-Jun-16 13:42N 49°57' W 008°15'17 9.6
2017-Jun-16 11:55N 49°56' W 007°49'1 2.3
2017-Jun-16 11:30N 49°56' W 007°47'4 8.3
2017-Jun-16 11:00N 49°52' W 007°47'510.0
2017-Jun-16 10:30N 49°47' W 007°47'20 7.4
2017-Jun-16 07:46N 49°42' W 008°17'2 6.2
2017-Jun-16 07:30N 49°42' W 008°20'610.7
2017-Jun-16 06:57N 49°42' W 008°29'  
Track history (hours):
 
Tides and Currents Weather Stations Pressure Air Temp Water Temp Dewpoint Dewpoint Depression Visibility Wind Speed Wind Dir Waves Ship Positions

Oceanographic research ship Celtic Explorer (Ireland)

Detailed information on ship capabilities available from University of Delaware's Ocean Information Center.

Last reported at 2017-Jun-24 17:40 UTC. Time now 2017-Jun-26 17:06 UTC.
Position N 52°12' W 010°40'.

Type: . MMSI: 250487000.

Date/timePositionNaut miles runAvg speedWind from/ knotsBaromVisibWave heightAir tempDewpointWater temp
2017-Jun-24 17:40N 52°12' W 010°40'46 1.8
2017-Jun-23 16:13N 51°27' W 010°51'2 3.0
2017-Jun-23 15:34N 51°27' W 010°48'1 7.7
2017-Jun-23 15:29N 51°27' W 010°47'5 8.5
2017-Jun-23 14:52N 51°27' W 010°38'1 1.4
2017-Jun-23 13:59N 51°27' W 010°36'2 4.0
2017-Jun-23 13:28N 51°27' W 010°40'1 1.3
2017-Jun-23 13:00N 51°27' W 010°39'4 8.4
2017-Jun-23 12:29N 51°27' W 010°32'1 2.7
2017-Jun-23 11:58N 51°27' W 010°29'2 3.3
2017-Jun-23 11:16N 51°26' W 010°26'2 8.4
2017-Jun-23 11:00N 51°27' W 010°22'4 8.5
2017-Jun-23 10:30N 51°27' W 010°15'3 5.8
2017-Jun-23 09:59N 51°26' W 010°10'2 3.4
2017-Jun-23 09:30N 51°25' W 010°09'4 8.5
2017-Jun-23 08:59N 51°22' W 010°04'4 8.5
2017-Jun-23 08:29N 51°19' W 009°59'4 8.3
2017-Jun-23 07:58N 51°16' W 009°54'4 8.1
2017-Jun-23 07:30N 51°14' W 009°50'2 4.8
2017-Jun-23 07:00N 51°11' W 009°48'510.5
2017-Jun-23 06:30N 51°11' W 009°57'510.8
2017-Jun-23 06:00N 51°11' W 010°05'5 9.0
2017-Jun-23 05:26N 51°11' W 010°14'26 5.2
2017-Jun-23 00:23N 51°11' W 010°55'0 0.1
2017-Jun-22 22:55N 51°11' W 010°56'6 9.9
2017-Jun-22 22:18N 51°11' W 011°05'13 5.6
2017-Jun-22 19:57N 50°58' W 011°04'1 1.3
2017-Jun-22 19:30N 50°58' W 011°03'2 3.4
2017-Jun-22 18:57N 50°58' W 011°06'2 4.2
2017-Jun-22 18:31N 50°58' W 011°09'4 7.5
2017-Jun-22 17:58N 50°58' W 011°03'6 9.5
2017-Jun-22 17:19N 50°58' W 010°53'3 9.5
2017-Jun-22 16:58N 50°58' W 010°48'4 9.4
2017-Jun-22 16:30N 50°58' W 010°41'4 9.1
2017-Jun-22 16:00N 50°58' W 010°34'1 1.0
2017-Jun-22 15:28N 50°58' W 010°33'4 9.3
2017-Jun-22 15:00N 50°58' W 010°26'5 9.2
2017-Jun-22 14:30N 50°58' W 010°19'9 9.3
2017-Jun-22 13:29N 50°58' W 010°04'11 9.5
2017-Jun-22 12:21N 50°58' W 009°47'6 9.4
2017-Jun-22 11:40N 50°58' W 009°36'1 3.5
2017-Jun-22 11:30N 50°58' W 009°37'2 3.5
2017-Jun-22 10:59N 50°58' W 009°40'24 8.4
2017-Jun-22 08:07N 50°58' W 009°02'0 0.0
2017-Jun-22 08:00N 50°58' W 009°02'46 5.9
2017-Jun-22 00:04N 50°58' W 007°48'0 0.0
2017-Jun-21 23:59N 50°58' W 007°48'0 0.0
2017-Jun-21 23:28N 50°58' W 007°48'9 6.4
2017-Jun-21 22:04N 50°58' W 007°34'15 5.2
2017-Jun-21 19:15N 51°12' W 007°40'410.6
2017-Jun-21 18:52N 51°16' W 007°44'410.6
2017-Jun-21 18:28N 51°19' W 007°48'510.7
2017-Jun-21 18:00N 51°23' W 007°52'510.7
2017-Jun-21 17:30N 51°28' W 007°56'510.6
2017-Jun-21 17:00N 51°32' W 008°01'510.5
2017-Jun-21 16:30N 51°37' W 008°06'510.6
2017-Jun-21 16:00N 51°41' W 008°11'4 8.4
2017-Jun-21 15:30N 51°45' W 008°14'4 8.9
2017-Jun-21 15:00N 51°49' W 008°16'2 4.6
2017-Jun-21 14:30N 51°50' W 008°19'1 0.7
2017-Jun-21 13:29N 51°51' W 008°20'0 0.0
2017-Jun-21 13:00N 51°51' W 008°20'0 0.0
2017-Jun-21 12:30N 51°51' W 008°20'0 0.0
2017-Jun-21 12:01N 51°51' W 008°20'2 4.5
2017-Jun-21 11:30N 51°51' W 008°16'612.4
2017-Jun-21 11:00N 51°45' W 008°15'713.7
2017-Jun-21 10:30N 51°39' W 008°09'510.6
2017-Jun-21 10:00N 51°36' W 008°02'713.0
2017-Jun-21 09:30N 51°31' W 007°55'612.9
2017-Jun-21 09:00N 51°26' W 007°48'612.7
2017-Jun-21 08:30N 51°22' W 007°41'612.1
2017-Jun-21 08:00N 51°17' W 007°35'611.7
2017-Jun-21 07:30N 51°13' W 007°28'611.2
2017-Jun-21 07:00N 51°11' W 007°19'612.2
2017-Jun-21 06:30N 51°11' W 007°10'712.2
2017-Jun-21 05:54N 51°11' W 006°58'7 5.2
2017-Jun-21 04:37N 51°11' W 006°47'0 0.8
2017-Jun-21 04:30N 51°11' W 006°47'610.9
2017-Jun-21 03:57N 51°11' W 006°38'611.5
2017-Jun-21 03:28N 51°11' W 006°29'6 9.8
2017-Jun-21 02:52N 51°12' W 006°19'30 7.8
2017-Jun-20 22:59N 51°37' W 006°46'713.2
2017-Jun-20 22:27N 51°34' W 006°36'3 7.4
2017-Jun-20 22:00N 51°33' W 006°31'610.3
2017-Jun-20 21:27N 51°27' W 006°34'511.1
2017-Jun-20 21:00N 51°23' W 006°38'3 4.5
2017-Jun-20 20:25N 51°21' W 006°37'613.3
2017-Jun-20 19:59N 51°21' W 006°28'5 9.0
2017-Jun-20 19:24N 51°16' W 006°25'1511.4
2017-Jun-20 18:05N 51°01' W 006°21'312.1
2017-Jun-20 17:52N 51°01' W 006°25'712.3
2017-Jun-20 17:18N 51°01' W 006°36'512.2
2017-Jun-20 16:55N 51°01' W 006°44'511.3
2017-Jun-20 16:30N 51°01' W 006°51'611.2
2017-Jun-20 15:59N 51°01' W 007°00'711.2
2017-Jun-20 15:21N 51°01' W 007°12'3 7.8
2017-Jun-20 15:00N 50°60' W 007°15'811.7
2017-Jun-20 14:18N 50°52' W 007°15'1811.1
2017-Jun-20 12:41N 50°51' W 006°47'0 0.0
2017-Jun-20 12:24N 50°51' W 006°47'7 9.6
2017-Jun-20 11:43N 50°51' W 006°36'211.4
2017-Jun-20 11:30N 50°51' W 006°33'6 4.3
2017-Jun-20 10:12N 50°51' W 006°24'2 3.8
2017-Jun-20 09:45N 50°51' W 006°26'4 7.8
2017-Jun-20 09:14N 50°51' W 006°20'1011.1
2017-Jun-20 08:22N 50°42' W 006°21'3510.1
2017-Jun-20 04:51N 50°42' W 007°17'410.0
2017-Jun-20 04:28N 50°42' W 007°23'510.1
2017-Jun-20 03:58N 50°42' W 007°31'510.1
2017-Jun-20 03:29N 50°42' W 007°38'510.3
2017-Jun-20 03:00N 50°42' W 007°46'0 0.4
2017-Jun-20 02:30N 50°42' W 007°46'0 0.0
2017-Jun-20 02:00N 50°42' W 007°46'0 0.0
2017-Jun-20 01:30N 50°42' W 007°46'0 0.0
2017-Jun-20 01:00N 50°42' W 007°46'0 0.0
2017-Jun-20 00:30N 50°42' W 007°46'0 0.0
2017-Jun-20 00:00N 50°42' W 007°46'0 0.0
2017-Jun-19 23:30N 50°42' W 007°46'0 0.9
2017-Jun-19 23:00N 50°42' W 007°47'812.4
2017-Jun-19 22:23N 50°42' W 007°59'712.4
2017-Jun-19 21:50N 50°42' W 008°10'5010.7
2017-Jun-19 17:10N 50°42' W 009°29'311.3
2017-Jun-19 16:53N 50°42' W 009°34'410.7
2017-Jun-19 16:30N 50°42' W 009°41'610.8
2017-Jun-19 16:00N 50°42' W 009°49'2 2.2
2017-Jun-19 15:18N 50°42' W 009°52'310.8
2017-Jun-19 15:00N 50°42' W 009°57'510.4
2017-Jun-19 14:29N 50°42' W 010°05'2610.9
2017-Jun-19 12:07N 50°41' W 010°46'0 2.4
2017-Jun-19 11:58N 50°42' W 010°46'2 3.1
2017-Jun-19 11:17N 50°42' W 010°43'1 2.5
2017-Jun-19 10:48N 50°42' W 010°41'7 8.1
2017-Jun-19 09:58N 50°38' W 010°50'61 5.4
2017-Jun-18 22:38N 50°27' W 009°16'10 6.4
2017-Jun-18 21:04N 50°27' W 009°00'1 9.8
2017-Jun-18 21:00N 50°27' W 008°59'810.1
2017-Jun-18 20:11N 50°27' W 008°46'1010.3
2017-Jun-18 19:15N 50°27' W 008°31'310.4
2017-Jun-18 19:00N 50°27' W 008°27'510.5
2017-Jun-18 18:30N 50°27' W 008°19'5 9.9
2017-Jun-18 18:01N 50°27' W 008°11'1 1.2
2017-Jun-18 17:30N 50°27' W 008°12'0 1.0
2017-Jun-18 17:01N 50°27' W 008°13'5 9.9
2017-Jun-18 16:30N 50°27' W 008°05'510.4
2017-Jun-18 16:00N 50°27' W 007°57'2 3.9
2017-Jun-18 15:30N 50°29' W 007°56'510.1
2017-Jun-18 15:00N 50°32' W 008°02'6 5.9
2017-Jun-18 14:00N 50°33' W 007°53'2 4.9
2017-Jun-18 13:30N 50°33' W 007°49'510.1
2017-Jun-18 13:00N 50°33' W 007°41'510.1
2017-Jun-18 12:30N 50°33' W 007°33'510.0
2017-Jun-18 12:01N 50°33' W 007°25'510.0
2017-Jun-18 11:30N 50°33' W 007°17'4 7.2
2017-Jun-18 11:00N 50°30' W 007°14'510.5
2017-Jun-18 10:30N 50°25' W 007°14'510.6
2017-Jun-18 10:00N 50°20' W 007°14'5 9.4
2017-Jun-18 09:30N 50°19' W 007°21'510.6
2017-Jun-18 09:00N 50°19' W 007°30'510.4
2017-Jun-18 08:30N 50°19' W 007°38'510.4
2017-Jun-18 08:00N 50°19' W 007°46'5 9.4
2017-Jun-18 07:30N 50°20' W 007°53'510.4
2017-Jun-18 07:00N 50°25' W 007°53'4 7.9
2017-Jun-18 06:30N 50°27' W 007°47'510.3
2017-Jun-18 06:00N 50°27' W 007°39'3 5.4
2017-Jun-18 05:30N 50°27' W 007°35'2 3.7
2017-Jun-18 05:00N 50°27' W 007°32'1 2.9
2017-Jun-18 04:30N 50°27' W 007°34'3 5.5
2017-Jun-18 04:00N 50°27' W 007°39'510.5
2017-Jun-18 03:30N 50°27' W 007°31'510.1
2017-Jun-18 03:00N 50°27' W 007°23'0 0.0
2017-Jun-18 02:30N 50°27' W 007°23'0 0.1
2017-Jun-18 02:01N 50°27' W 007°23'2 4.9
2017-Jun-18 01:30N 50°25' W 007°25'3 6.0
2017-Jun-18 01:00N 50°22' W 007°28'510.0
2017-Jun-18 00:30N 50°19' W 007°33'510.3
2017-Jun-18 00:00N 50°15' W 007°38'5 9.5
2017-Jun-17 23:30N 50°12' W 007°44'510.7
2017-Jun-17 23:00N 50°12' W 007°52'710.8
2017-Jun-17 22:23N 50°12' W 008°02'410.7
2017-Jun-17 22:00N 50°12' W 008°09'3 6.6
2017-Jun-17 21:30N 50°12' W 008°14'2 3.2
2017-Jun-17 21:00N 50°12' W 008°16'510.6
2017-Jun-17 20:30N 50°11' W 008°25'1810.5
2017-Jun-17 18:50N 50°12' W 008°52'710.3
2017-Jun-17 18:08N 50°12' W 009°03'110.1
2017-Jun-17 18:00N 50°12' W 009°06'510.1
2017-Jun-17 17:29N 50°12' W 009°14'610.0
2017-Jun-17 16:53N 50°12' W 009°23'4 9.8
2017-Jun-17 16:30N 50°12' W 009°29'610.1
2017-Jun-17 15:56N 50°12' W 009°38'510.1
2017-Jun-17 15:26N 50°12' W 009°46'4 8.6
2017-Jun-17 14:59N 50°12' W 009°52'0 0.9
2017-Jun-17 14:28N 50°12' W 009°52'8 8.2
2017-Jun-17 13:30N 50°12' W 010°05'610.4
2017-Jun-17 12:55N 50°12' W 010°14'510.2
2017-Jun-17 12:25N 50°12' W 010°22'710.2
2017-Jun-17 11:45N 50°12' W 010°33'14 4.9
2017-Jun-17 08:52N 50°11' W 010°55'104 5.4
2017-Jun-16 13:42N 49°57' W 008°15'17 9.6
2017-Jun-16 11:55N 49°56' W 007°49'1 2.3
2017-Jun-16 11:30N 49°56' W 007°47'4 8.3
2017-Jun-16 11:00N 49°52' W 007°47'510.0
2017-Jun-16 10:30N 49°47' W 007°47'20 7.4
2017-Jun-16 07:46N 49°42' W 008°17'2 6.2
2017-Jun-16 07:30N 49°42' W 008°20'610.7
2017-Jun-16 06:57N 49°42' W 008°29'  

Dump ship's entire track history